createdAt,value
2018-09-04T00:01:04.426Z,-72
2018-09-04T00:03:33.681Z,-73
2018-09-04T00:06:02.901Z,-74
2018-09-04T00:08:32.165Z,-74
2018-09-04T00:11:01.153Z,-73
2018-09-04T00:13:30.369Z,-74
2018-09-04T00:15:59.560Z,-74
2018-09-04T00:18:28.762Z,-74
2018-09-04T00:20:57.752Z,-75
2018-09-04T00:23:26.757Z,-75
2018-09-04T00:25:56.030Z,-72
2018-09-04T00:28:25.290Z,-74
2018-09-04T00:30:54.558Z,-74
2018-09-04T00:33:23.790Z,-73
2018-09-04T00:35:53.018Z,-72
2018-09-04T00:38:22.242Z,-74
2018-09-04T00:40:51.445Z,-73
2018-09-04T00:43:20.678Z,-72
2018-09-04T00:45:49.659Z,-74
2018-09-04T00:48:18.671Z,-74
2018-09-04T00:50:48.026Z,-74
2018-09-04T00:53:17.240Z,-74
2018-09-04T00:55:46.440Z,-73
2018-09-04T00:58:15.716Z,-72
2018-09-04T01:00:44.930Z,-74
2018-09-04T01:03:14.153Z,-74
2018-09-04T01:05:43.408Z,-72
2018-09-04T01:08:12.658Z,-74
2018-09-04T01:10:41.901Z,-72
2018-09-04T01:13:11.133Z,-74
2018-09-04T01:15:40.388Z,-73
2018-09-04T01:18:10.111Z,-72
2018-09-04T01:20:39.458Z,-72
2018-09-04T01:23:09.474Z,-73
2018-09-04T01:25:38.929Z,-74
2018-09-04T01:28:09.039Z,-73
2018-09-04T01:30:38.294Z,-74
2018-09-04T01:33:07.760Z,-72
2018-09-04T01:35:37.022Z,-73
2018-09-04T01:38:06.209Z,-74
2018-09-04T01:40:35.421Z,-74
2018-09-04T01:43:04.385Z,-73
2018-09-04T01:45:33.585Z,-74
2018-09-04T01:48:03.438Z,-74
2018-09-04T01:50:32.753Z,-72
2018-09-04T01:53:01.966Z,-73
2018-09-04T01:55:31.190Z,-72
2018-09-04T01:58:00.394Z,-72
2018-09-04T02:00:29.633Z,-72
2018-09-04T02:02:58.656Z,-74
2018-09-04T02:05:28.244Z,-72
2018-09-04T02:07:57.457Z,-74
2018-09-04T02:10:26.667Z,-74
2018-09-04T02:12:56.002Z,-73
2018-09-04T02:15:24.967Z,-74
2018-09-04T02:17:54.728Z,-73
2018-09-04T02:20:23.730Z,-74
2018-09-04T02:22:52.721Z,-74
2018-09-04T02:25:21.910Z,-74
2018-09-04T02:27:51.162Z,-73
2018-09-04T02:30:20.370Z,-74
2018-09-04T02:32:49.593Z,-73
2018-09-04T02:35:18.545Z,-74
2018-09-04T02:37:58.689Z,-74
2018-09-04T02:40:27.973Z,-72
2018-09-04T02:42:57.201Z,-75
2018-09-04T02:45:27.408Z,-73
2018-09-04T02:47:56.648Z,-72
2018-09-04T02:50:25.683Z,-72
2018-09-04T02:52:54.735Z,-74
2018-09-04T02:55:23.931Z,-73
2018-09-04T02:57:52.898Z,-74
2018-09-04T03:00:22.129Z,-74
2018-09-04T03:02:51.112Z,-75
2018-09-04T03:05:20.332Z,-75
2018-09-04T03:07:49.559Z,-72
2018-09-04T03:10:18.794Z,-74
2018-09-04T03:12:47.967Z,-75
2018-09-04T03:15:16.940Z,-74
2018-09-04T03:17:46.151Z,-74
2018-09-04T03:20:15.455Z,-72
2018-09-04T03:22:44.713Z,-74
2018-09-04T03:25:13.971Z,-72
2018-09-04T03:27:43.239Z,-74
2018-09-04T03:30:12.436Z,-73
2018-09-04T03:32:41.412Z,-74
2018-09-04T03:35:10.681Z,-73
2018-09-04T03:37:40.075Z,-72
2018-09-04T03:40:09.297Z,-73
2018-09-04T03:42:38.493Z,-72
2018-09-04T03:45:07.517Z,-74
2018-09-04T03:47:36.687Z,-74
2018-09-04T03:50:06.288Z,-73
2018-09-04T03:52:35.554Z,-73
2018-09-04T03:55:05.127Z,-72
2018-09-04T03:57:34.341Z,-74
2018-09-04T04:00:03.692Z,-72
2018-09-04T04:02:32.707Z,-74
2018-09-04T04:05:01.965Z,-74
2018-09-04T04:07:31.217Z,-74
2018-09-04T04:10:00.473Z,-74
2018-09-04T04:12:29.733Z,-74
2018-09-04T04:14:59.230Z,-73
2018-09-04T04:17:28.602Z,-73
2018-09-04T04:19:57.956Z,-71
2018-09-04T04:22:27.415Z,-72
2018-09-04T04:24:56.723Z,-75
2018-09-04T04:27:25.972Z,-74
2018-09-04T04:29:55.173Z,-73
2018-09-04T04:32:24.965Z,-71
2018-09-04T04:34:54.307Z,-73
2018-09-04T04:37:23.565Z,-73
2018-09-04T04:39:52.912Z,-74
2018-09-04T04:42:22.251Z,-74
2018-09-04T04:44:51.524Z,-72
2018-09-04T04:47:24.830Z,-72
2018-09-04T04:49:54.119Z,-73
2018-09-04T04:52:23.115Z,-73
2018-09-04T04:54:52.125Z,-74
2018-09-04T04:57:21.133Z,-72
2018-09-04T04:59:50.370Z,-72
2018-09-04T05:02:19.631Z,-73
2018-09-04T05:04:48.743Z,-74
2018-09-04T05:07:17.718Z,-73
2018-09-04T05:09:46.934Z,-71
2018-09-04T05:12:16.169Z,-73
2018-09-04T05:14:45.407Z,-74
2018-09-04T05:17:14.616Z,-73
2018-09-04T05:19:50.550Z,-74
2018-09-04T05:22:19.786Z,-75
2018-09-04T05:24:49.087Z,-74
2018-09-04T05:27:18.325Z,-74
2018-09-04T05:29:47.597Z,-73
2018-09-04T05:33:20.653Z,-74
2018-09-04T05:35:52.062Z,-71
2018-09-04T05:38:21.307Z,-73
2018-09-04T05:40:50.550Z,-72
2018-09-04T05:43:29.481Z,-73
2018-09-04T05:46:00.619Z,-73
2018-09-04T05:48:29.843Z,-73
2018-09-04T05:50:58.932Z,-73
2018-09-04T05:53:28.215Z,-71
2018-09-04T05:55:57.607Z,-73
2018-09-04T05:58:26.861Z,-73
2018-09-04T06:00:58.752Z,-72
2018-09-04T06:03:28.026Z,-73
2018-09-04T06:05:57.292Z,-73
2018-09-04T06:08:26.507Z,-73
2018-09-04T06:10:55.793Z,-71
2018-09-04T06:13:25.029Z,-73
2018-09-04T06:15:54.244Z,-73
2018-09-04T06:18:23.506Z,-73
2018-09-04T06:20:52.708Z,-73
2018-09-04T06:23:22.109Z,-73
2018-09-04T06:25:51.316Z,-73
2018-09-04T06:28:20.623Z,-74
2018-09-04T06:30:50.087Z,-73
2018-09-04T06:33:19.350Z,-73
2018-09-04T06:35:48.545Z,-73
2018-09-04T06:38:17.863Z,-71
2018-09-04T06:40:46.894Z,-74
2018-09-04T06:43:16.206Z,-73
2018-09-04T06:45:45.472Z,-74
2018-09-04T06:48:14.830Z,-75
2018-09-04T06:50:44.276Z,-74
2018-09-04T06:53:13.518Z,-73
2018-09-04T06:55:49.454Z,-74
2018-09-04T06:58:18.693Z,-74
2018-09-04T07:00:47.912Z,-72
2018-09-04T07:03:17.131Z,-75
2018-09-04T07:05:46.349Z,-74
2018-09-04T07:08:15.808Z,-76
2018-09-04T07:10:45.022Z,-73
2018-09-04T07:13:14.035Z,-72
2018-09-04T07:15:43.243Z,-72
2018-09-04T07:18:12.278Z,-72
2018-09-04T07:20:41.493Z,-74
2018-09-04T07:23:10.708Z,-73
2018-09-04T07:25:40.014Z,-74
2018-09-04T07:28:09.328Z,-72
2018-09-04T07:30:38.616Z,-72
2018-09-04T07:33:08.446Z,-72
2018-09-04T07:35:37.708Z,-74
2018-09-04T07:38:07.151Z,-74
2018-09-04T07:40:36.434Z,-75
2018-09-04T07:43:05.752Z,-73
2018-09-04T07:45:34.954Z,-72
2018-09-04T07:48:04.213Z,-72
2018-09-04T07:50:33.414Z,-73
2018-09-04T07:53:02.628Z,-73
2018-09-04T07:55:32.046Z,-72
2018-09-04T07:58:01.875Z,-73
2018-09-04T08:00:31.084Z,-74
2018-09-04T08:03:00.351Z,-73
2018-09-04T08:05:29.619Z,-72
2018-09-04T08:07:58.868Z,-73
2018-09-04T08:10:28.155Z,-73
2018-09-04T08:12:57.375Z,-73
2018-09-04T08:15:26.561Z,-73
2018-09-04T08:17:55.656Z,-73
2018-09-04T08:20:25.419Z,-73
2018-09-04T08:22:55.491Z,-73
2018-09-04T08:25:25.826Z,-72
2018-09-04T08:27:55.202Z,-73
2018-09-04T08:30:25.110Z,-72
2018-09-04T08:32:54.213Z,-73
2018-09-04T08:35:23.172Z,-74
2018-09-04T08:37:57.828Z,-72
2018-09-04T08:40:27.169Z,-73
2018-09-04T08:42:56.439Z,-71
2018-09-04T08:45:25.543Z,-71
2018-09-04T08:47:54.815Z,-73
2018-09-04T08:50:24.095Z,-75
2018-09-04T08:52:53.483Z,-71
2018-09-04T08:55:22.749Z,-74
2018-09-04T08:57:51.754Z,-74
2018-09-04T09:00:20.706Z,-73
2018-09-04T09:02:50.010Z,-74
2018-09-04T09:05:19.274Z,-73
2018-09-04T09:07:48.493Z,-73
2018-09-04T09:10:17.760Z,-73
2018-09-04T09:12:46.952Z,-73
2018-09-04T09:15:16.331Z,-74
2018-09-04T09:17:45.558Z,-74
2018-09-04T09:20:14.903Z,-72
2018-09-04T09:22:44.215Z,-74
2018-09-04T09:25:13.462Z,-72
2018-09-04T09:27:42.569Z,-73
2018-09-04T09:30:12.301Z,-73
2018-09-04T09:32:41.533Z,-72
2018-09-04T09:35:11.003Z,-74
2018-09-04T09:37:40.197Z,-73
2018-09-04T09:40:09.250Z,-75
2018-09-04T09:42:38.465Z,-71
2018-09-04T09:45:07.480Z,-75
2018-09-04T09:47:40.782Z,-73
2018-09-04T09:50:16.153Z,-71
2018-09-04T09:52:45.977Z,-74
2018-09-04T09:55:15.003Z,-71
2018-09-04T09:57:43.988Z,-72
2018-09-04T10:00:18.108Z,-73
2018-09-04T10:02:51.268Z,-71
2018-09-04T10:05:20.593Z,-73
2018-09-04T10:07:50.134Z,-73
2018-09-04T10:10:19.385Z,-71
2018-09-04T10:12:48.538Z,-74
2018-09-04T10:15:17.527Z,-73
2018-09-04T10:17:46.803Z,-73
2018-09-04T10:20:16.310Z,-73
2018-09-04T10:22:45.605Z,-73
2018-09-04T10:25:15.432Z,-73
2018-09-04T10:27:44.417Z,-72
2018-09-04T10:30:14.107Z,-71
2018-09-04T10:32:48.681Z,-73
2018-09-04T10:35:17.894Z,-71
2018-09-04T10:37:47.446Z,-71
2018-09-04T10:40:22.057Z,-73
2018-09-04T10:42:51.293Z,-73
2018-09-04T10:45:26.960Z,-74
2018-09-04T10:47:56.189Z,-72
2018-09-04T10:50:25.362Z,-74
2018-09-04T10:52:54.634Z,-72
2018-09-04T10:55:23.857Z,-73
2018-09-04T10:57:53.236Z,-73
2018-09-04T11:00:22.424Z,-74
2018-09-04T11:02:51.713Z,-71
2018-09-04T11:05:20.917Z,-73
2018-09-04T11:07:50.186Z,-71
2018-09-04T11:10:19.444Z,-71
2018-09-04T11:12:48.755Z,-73
2018-09-04T11:15:18.003Z,-72
2018-09-04T11:17:47.016Z,-71
2018-09-04T11:22:50.767Z,-76
2018-09-04T11:25:19.994Z,-72
2018-09-04T11:27:49.010Z,-74
2018-09-04T11:30:18.002Z,-74
2018-09-04T11:32:47.278Z,-74
2018-09-04T11:35:16.501Z,-73
2018-09-04T11:37:45.551Z,-74
2018-09-04T11:40:21.171Z,-75
2018-09-04T11:42:50.431Z,-72
2018-09-04T11:45:19.660Z,-74
2018-09-04T11:47:48.875Z,-74
2018-09-04T11:50:18.122Z,-72
2018-09-04T11:52:47.380Z,-72
2018-09-04T11:55:16.573Z,-72
2018-09-04T11:57:45.821Z,-75
2018-09-04T12:00:20.287Z,-73
2018-09-04T12:02:49.521Z,-72
2018-09-04T12:05:18.764Z,-72
2018-09-04T12:07:48.053Z,-75
2018-09-04T12:10:17.350Z,-75
2018-09-04T12:12:46.626Z,-72
2018-09-04T12:15:16.118Z,-72
2018-09-04T12:17:45.334Z,-72
2018-09-04T12:20:52.270Z,-72
2018-09-04T12:23:21.295Z,-74
2018-09-04T12:25:52.160Z,-72
2018-09-04T12:28:21.438Z,-72
2018-09-04T12:30:50.439Z,-72
2018-09-04T12:33:19.711Z,-75
2018-09-04T12:35:48.927Z,-75
2018-09-04T12:38:24.533Z,-73
2018-09-04T12:40:53.708Z,-74
2018-09-04T12:43:22.958Z,-75
2018-09-04T12:45:56.245Z,-74
2018-09-04T12:48:28.750Z,-73
2018-09-04T12:50:59.256Z,-74
2018-09-04T12:53:29.379Z,-72
2018-09-04T12:55:58.629Z,-73
2018-09-04T12:58:27.865Z,-75
2018-09-04T13:00:57.849Z,-75
2018-09-04T13:03:28.285Z,-74
2018-09-04T13:05:57.296Z,-73
2018-09-04T13:08:27.814Z,-75
2018-09-04T13:10:57.033Z,-75
2018-09-04T13:13:26.758Z,-74
2018-09-04T13:15:57.688Z,-76
2018-09-04T13:18:27.754Z,-74
2018-09-04T13:21:04.673Z,-74
2018-09-04T13:23:35.038Z,-74
2018-09-04T13:26:04.298Z,-75
2018-09-04T13:28:34.220Z,-74
2018-09-04T13:31:03.486Z,-75
2018-09-04T13:33:32.676Z,-75
2018-09-04T13:36:01.875Z,-75
2018-09-04T13:38:31.056Z,-74
2018-09-04T13:41:05.571Z,-72
2018-09-04T13:43:35.142Z,-73
2018-09-04T13:46:04.759Z,-73
2018-09-04T13:48:35.000Z,-75
2018-09-04T13:51:04.362Z,-72
2018-09-04T13:53:33.340Z,-73
2018-09-04T13:56:02.552Z,-73
2018-09-04T13:58:31.875Z,-75
2018-09-04T14:01:01.200Z,-74
2018-09-04T14:03:30.500Z,-74
2018-09-04T14:05:59.674Z,-74
2018-09-04T14:08:29.265Z,-73
2018-09-04T14:10:58.258Z,-75
2018-09-04T14:13:27.502Z,-72
2018-09-04T14:15:59.009Z,-74
2018-09-04T14:18:28.243Z,-73
2018-09-04T14:20:57.534Z,-73
2018-09-04T14:23:26.530Z,-75
2018-09-04T14:25:55.798Z,-73
2018-09-04T14:29:06.431Z,-72
2018-09-04T14:30:54.378Z,-72
2018-09-04T14:33:23.369Z,-73
2018-09-04T14:35:52.395Z,-72
2018-09-04T14:38:21.641Z,-73
2018-09-04T14:40:51.035Z,-74
2018-09-04T14:43:20.336Z,-74
2018-09-04T14:45:49.594Z,-74
2018-09-04T14:48:18.874Z,-75
2018-09-04T14:50:48.074Z,-76
2018-09-04T14:53:17.265Z,-73
2018-09-04T14:55:46.535Z,-75
2018-09-04T14:58:15.778Z,-74
2018-09-04T15:00:45.015Z,-75
2018-09-04T15:03:14.290Z,-74
2018-09-04T15:05:43.813Z,-74
2018-09-04T15:08:13.117Z,-73
2018-09-04T15:10:42.296Z,-74
2018-09-04T15:13:11.599Z,-75
2018-09-04T15:15:40.824Z,-73
2018-09-04T15:18:10.189Z,-73
2018-09-04T15:20:39.384Z,-72
2018-09-04T15:23:08.622Z,-73
2018-09-04T15:25:37.606Z,-75
2018-09-04T15:28:07.147Z,-75
2018-09-04T15:30:36.389Z,-74
2018-09-04T15:33:05.389Z,-74
2018-09-04T15:35:34.681Z,-74
2018-09-04T15:38:04.141Z,-74
2018-09-04T15:40:33.765Z,-75
2018-09-04T15:43:03.077Z,-74
2018-09-04T15:45:32.321Z,-74
2018-09-04T15:48:01.658Z,-75
2018-09-04T15:50:30.868Z,-74
2018-09-04T15:52:59.808Z,-74
2018-09-04T15:55:29.160Z,-74
2018-09-04T15:57:58.945Z,-75
2018-09-04T16:00:27.993Z,-74
2018-09-04T16:02:57.481Z,-75
2018-09-04T16:05:26.427Z,-74
2018-09-04T16:07:55.658Z,-73
2018-09-04T16:10:24.971Z,-73
2018-09-04T16:12:54.198Z,-75
2018-09-04T16:15:23.248Z,-74
2018-09-04T16:17:52.596Z,-75
2018-09-04T16:20:21.910Z,-73
2018-09-04T16:23:07.783Z,-76
2018-09-04T16:25:43.953Z,-73
2018-09-04T16:28:13.494Z,-72
2018-09-04T16:30:42.765Z,-74
2018-09-04T16:33:11.988Z,-73
2018-09-04T16:35:41.280Z,-72
2018-09-04T16:38:10.622Z,-73
2018-09-04T16:40:39.886Z,-74
2018-09-04T16:43:09.119Z,-75
2018-09-04T16:45:39.471Z,-73
2018-09-04T16:48:08.952Z,-74
2018-09-04T16:50:38.243Z,-75
2018-09-04T16:53:07.504Z,-73
2018-09-04T16:55:36.681Z,-74
2018-09-04T16:58:06.208Z,-75
2018-09-04T17:00:35.605Z,-73
2018-09-04T17:03:04.864Z,-75
2018-09-04T17:05:33.888Z,-75
2018-09-04T17:08:03.115Z,-74
2018-09-04T17:10:32.389Z,-74
2018-09-04T17:13:01.652Z,-75
2018-09-04T17:15:30.897Z,-75
2018-09-04T17:18:00.172Z,-74
2018-09-04T17:20:29.268Z,-74
2018-09-04T17:22:58.392Z,-75
2018-09-04T17:25:27.611Z,-73
2018-09-04T17:27:56.835Z,-73
2018-09-04T17:30:26.085Z,-74
2018-09-04T17:32:55.064Z,-74
2018-09-04T17:35:24.697Z,-74
2018-09-04T17:37:53.909Z,-74
2018-09-04T17:40:23.216Z,-74
2018-09-04T17:42:52.431Z,-73
2018-09-04T17:45:21.675Z,-74
2018-09-04T17:47:50.948Z,-73
2018-09-04T17:50:20.264Z,-74
2018-09-04T17:52:49.575Z,-74
2018-09-04T17:55:18.818Z,-83
2018-09-04T17:57:48.092Z,-83
2018-09-04T18:00:17.631Z,-84
2018-09-04T18:02:46.890Z,-83
2018-09-04T18:05:16.443Z,-84
2018-09-04T18:07:46.052Z,-83
2018-09-04T18:10:15.775Z,-84
2018-09-04T18:12:45.017Z,-83
2018-09-04T18:15:14.517Z,-84
2018-09-04T18:17:43.971Z,-83
2018-09-04T18:20:13.965Z,-83
2018-09-04T18:22:43.365Z,-83
2018-09-04T18:25:12.592Z,-83
2018-09-04T18:27:42.495Z,-84
2018-09-04T18:30:12.082Z,-83
2018-09-04T18:32:41.268Z,-84
2018-09-04T18:35:10.774Z,-84
2018-09-04T18:37:40.273Z,-84
2018-09-04T18:40:15.714Z,-83
2018-09-04T18:42:45.369Z,-84
2018-09-04T18:45:58.190Z,-83
2018-09-04T18:48:27.347Z,-81
2018-09-04T18:50:57.010Z,-83
2018-09-04T18:53:26.335Z,-82
2018-09-04T18:55:55.521Z,-82
2018-09-04T18:58:24.712Z,-82
2018-09-04T19:00:54.244Z,-83
2018-09-04T19:03:23.516Z,-82
2018-09-04T19:05:52.705Z,-82
2018-09-04T19:08:21.897Z,-83
2018-09-04T19:10:51.082Z,-82
2018-09-04T19:13:20.339Z,-83
2018-09-04T19:15:49.772Z,-82
2018-09-04T19:18:18.976Z,-82
2018-09-04T19:20:48.149Z,-81
2018-09-04T19:23:17.405Z,-84
2018-09-04T19:25:51.619Z,-81
2018-09-04T19:28:21.188Z,-84
2018-09-04T19:30:50.617Z,-82
2018-09-04T19:33:19.794Z,-81
2018-09-04T19:35:49.065Z,-82
2018-09-04T19:38:18.140Z,-84
2018-09-04T19:40:47.327Z,-82
2018-09-04T19:43:16.494Z,-82
2018-09-04T19:45:46.247Z,-82
2018-09-04T19:48:15.797Z,-82
2018-09-04T19:50:46.755Z,-82
2018-09-04T19:53:19.070Z,-81
2018-09-04T19:56:12.847Z,-83
2018-09-04T19:58:42.593Z,-82
2018-09-04T20:01:11.888Z,-81
2018-09-04T20:03:41.072Z,-81
2018-09-04T20:06:11.078Z,-82
2018-09-04T20:08:40.201Z,-83
2018-09-04T20:11:09.577Z,-83
2018-09-04T20:13:38.655Z,-81
2018-09-04T20:16:07.833Z,-82
2018-09-04T20:18:37.008Z,-82
2018-09-04T20:21:06.095Z,-83
2018-09-04T20:23:35.400Z,-83
2018-09-04T20:26:18.931Z,-82
2018-09-04T20:28:48.350Z,-83
2018-09-04T20:31:17.438Z,-82
2018-09-04T20:33:46.924Z,-81
2018-09-04T20:36:17.219Z,-82
2018-09-04T20:38:46.628Z,-82
2018-09-04T20:41:20.001Z,-83
2018-09-04T20:43:49.050Z,-81
2018-09-04T20:46:18.107Z,-81
2018-09-04T20:48:47.203Z,-82
2018-09-04T20:51:27.717Z,-81
2018-09-04T20:53:56.855Z,-82
2018-09-04T20:56:25.995Z,-82
2018-09-04T20:59:12.265Z,-81
2018-09-04T21:01:58.729Z,-83
2018-09-04T21:04:39.008Z,-81
2018-09-04T21:07:10.916Z,-82
2018-09-04T21:09:45.395Z,-80
2018-09-04T21:12:14.669Z,-80
2018-09-04T21:14:44.144Z,-80
2018-09-04T21:17:13.588Z,-80
2018-09-04T21:19:42.656Z,-81
2018-09-04T21:22:12.109Z,-81
2018-09-04T21:24:41.187Z,-82
2018-09-04T21:27:10.594Z,-81
2018-09-04T21:29:39.675Z,-84
2018-09-04T21:32:09.033Z,-81
2018-09-04T21:34:38.324Z,-81
2018-09-04T21:37:07.537Z,-82
2018-09-04T21:39:36.922Z,-81
2018-09-04T21:42:16.505Z,-82
2018-09-04T21:44:46.008Z,-82
2018-09-04T21:47:15.100Z,-81
2018-09-04T21:49:44.475Z,-81
2018-09-04T21:52:13.919Z,-82
2018-09-04T21:54:43.326Z,-82
2018-09-04T21:57:12.756Z,-82
2018-09-04T21:59:42.126Z,-80
2018-09-04T22:02:11.407Z,-82
2018-09-04T22:04:41.815Z,-82
2018-09-04T22:07:11.031Z,-82
2018-09-04T22:09:40.520Z,-82
2018-09-04T22:12:11.359Z,-81
2018-09-04T22:14:40.912Z,-82
2018-09-04T22:17:10.335Z,-82
2018-09-04T22:19:39.726Z,-83
2018-09-04T22:22:09.125Z,-80
2018-09-04T22:24:38.494Z,-82
2018-09-04T22:27:09.624Z,-80
2018-09-04T22:29:42.281Z,-82
2018-09-04T22:32:12.695Z,-82
2018-09-04T22:34:42.113Z,-82
2018-09-04T22:37:12.039Z,-82
2018-09-04T22:39:41.441Z,-82
2018-09-04T22:42:10.519Z,-81
2018-09-04T22:44:39.849Z,-81
2018-09-04T22:47:08.961Z,-81
2018-09-04T22:49:40.946Z,-80
2018-09-04T22:52:10.346Z,-81
2018-09-04T22:54:39.687Z,-81
2018-09-04T22:57:08.751Z,-80
2018-09-04T22:59:38.131Z,-81
2018-09-04T23:02:07.194Z,-82
2018-09-04T23:04:36.569Z,-81
2018-09-04T23:07:06.554Z,-80
2018-09-04T23:09:35.912Z,-82
2018-09-04T23:12:05.222Z,-82
2018-09-04T23:14:34.676Z,-81
2018-09-04T23:17:03.727Z,-81
2018-09-04T23:19:32.838Z,-82
2018-09-04T23:22:02.225Z,-81
2018-09-04T23:24:31.430Z,-81
2018-09-04T23:27:00.885Z,-82
2018-09-04T23:29:30.328Z,-82
2018-09-04T23:31:59.505Z,-83
2018-09-04T23:34:28.936Z,-81
2018-09-04T23:36:58.036Z,-81
2018-09-04T23:39:27.136Z,-81
2018-09-04T23:41:56.585Z,-84
2018-09-04T23:44:25.845Z,-82
2018-09-04T23:46:55.304Z,-81
2018-09-04T23:49:24.436Z,-80
2018-09-04T23:51:53.865Z,-80
2018-09-04T23:54:23.327Z,-80
2018-09-04T23:56:52.739Z,-80
2018-09-04T23:59:22.021Z,-81
